sensor_id;sensor_type;location;lat;lon;timestamp;P1;durP1;ratioP1;P2;durP2;ratioP2
15271;SDS011;7737;51.578;7.268;2024-01-16T00:01:10;20.13;;;11.27;;
15271;SDS011;7737;51.578;7.268;2024-01-16T00:03:39;24.20;;;12.73;;
15271;SDS011;7737;51.578;7.268;2024-01-16T00:06:05;21.80;;;12.97;;
15271;SDS011;7737;51.578;7.268;2024-01-16T00:08:32;17.00;;;11.30;;
15271;SDS011;7737;51.578;7.268;2024-01-16T00:10:59;14.77;;;9.30;;
15271;SDS011;7737;51.578;7.268;2024-01-16T00:13:28;13.50;;;8.93;;
15271;SDS011;7737;51.578;7.268;2024-01-16T00:15:54;13.77;;;9.73;;
15271;SDS011;7737;51.578;7.268;2024-01-16T00:18:21;15.40;;;9.47;;
15271;SDS011;7737;51.578;7.268;2024-01-16T00:20:49;15.37;;;9.30;;
15271;SDS011;7737;51.578;7.268;2024-01-16T00:23:16;15.00;;;9.93;;
15271;SDS011;7737;51.578;7.268;2024-01-16T00:25:42;16.53;;;10.03;;
15271;SDS011;7737;51.578;7.268;2024-01-16T00:28:09;13.30;;;9.37;;
15271;SDS011;7737;51.578;7.268;2024-01-16T00:30:36;13.17;;;9.43;;
15271;SDS011;7737;51.578;7.268;2024-01-16T00:33:02;15.07;;;8.57;;
15271;SDS011;7737;51.578;7.268;2024-01-16T00:35:29;13.30;;;9.30;;
15271;SDS011;7737;51.578;7.268;2024-01-16T00:37:57;13.63;;;9.23;;
15271;SDS011;7737;51.578;7.268;2024-01-16T00:40:23;11.57;;;8.63;;
15271;SDS011;7737;51.578;7.268;2024-01-16T00:42:50;11.93;;;8.23;;
15271;SDS011;7737;51.578;7.268;2024-01-16T00:45:16;16.07;;;8.40;;
15271;SDS011;7737;51.578;7.268;2024-01-16T00:47:43;13.90;;;9.53;;
15271;SDS011;7737;51.578;7.268;2024-01-16T00:50:09;15.40;;;9.27;;
15271;SDS011;7737;51.578;7.268;2024-01-16T00:52:36;12.60;;;8.07;;
15271;SDS011;7737;51.578;7.268;2024-01-16T00:55:04;12.47;;;8.43;;
15271;SDS011;7737;51.578;7.268;2024-01-16T00:57:31;13.57;;;8.63;;
15271;SDS011;7737;51.578;7.268;2024-01-16T00:59:58;13.43;;;7.93;;
15271;SDS011;7737;51.578;7.268;2024-01-16T01:02:24;12.33;;;8.10;;
15271;SDS011;7737;51.578;7.268;2024-01-16T01:04:51;15.57;;;8.07;;
15271;SDS011;7737;51.578;7.268;2024-01-16T01:07:17;12.70;;;8.10;;
15271;SDS011;7737;51.578;7.268;2024-01-16T01:09:44;12.47;;;7.93;;
15271;SDS011;7737;51.578;7.268;2024-01-16T01:12:11;12.17;;;7.50;;
15271;SDS011;7737;51.578;7.268;2024-01-16T01:14:38;11.27;;;7.47;;
15271;SDS011;7737;51.578;7.268;2024-01-16T01:17:04;10.03;;;7.60;;
15271;SDS011;7737;51.578;7.268;2024-01-16T01:19:31;12.53;;;7.77;;
15271;SDS011;7737;51.578;7.268;2024-01-16T01:21:58;9.73;;;7.33;;
15271;SDS011;7737;51.578;7.268;2024-01-16T01:24:24;14.47;;;7.63;;
15271;SDS011;7737;51.578;7.268;2024-01-16T01:26:50;12.83;;;7.47;;
15271;SDS011;7737;51.578;7.268;2024-01-16T01:29:18;9.67;;;7.27;;
15271;SDS011;7737;51.578;7.268;2024-01-16T01:31:45;13.10;;;7.30;;
15271;SDS011;7737;51.578;7.268;2024-01-16T01:34:12;12.73;;;7.23;;
15271;SDS011;7737;51.578;7.268;2024-01-16T01:36:39;10.07;;;8.30;;
15271;SDS011;7737;51.578;7.268;2024-01-16T01:39:05;13.77;;;8.57;;
15271;SDS011;7737;51.578;7.268;2024-01-16T01:41:32;11.53;;;8.30;;
15271;SDS011;7737;51.578;7.268;2024-01-16T01:43:58;12.37;;;8.43;;
15271;SDS011;7737;51.578;7.268;2024-01-16T01:46:26;13.40;;;8.03;;
15271;SDS011;7737;51.578;7.268;2024-01-16T01:48:53;10.77;;;7.40;;
15271;SDS011;7737;51.578;7.268;2024-01-16T01:51:21;13.10;;;7.57;;
15271;SDS011;7737;51.578;7.268;2024-01-16T01:53:48;12.23;;;7.20;;
15271;SDS011;7737;51.578;7.268;2024-01-16T01:56:17;14.63;;;7.60;;
15271;SDS011;7737;51.578;7.268;2024-01-16T01:58:45;11.33;;;8.30;;
15271;SDS011;7737;51.578;7.268;2024-01-16T02:01:13;11.20;;;7.60;;
15271;SDS011;7737;51.578;7.268;2024-01-16T02:03:43;12.93;;;7.53;;
15271;SDS011;7737;51.578;7.268;2024-01-16T02:06:10;12.07;;;7.17;;
15271;SDS011;7737;51.578;7.268;2024-01-16T02:08:37;12.40;;;8.13;;
15271;SDS011;7737;51.578;7.268;2024-01-16T02:11:04;13.47;;;8.50;;
15271;SDS011;7737;51.578;7.268;2024-01-16T02:13:31;14.13;;;8.97;;
15271;SDS011;7737;51.578;7.268;2024-01-16T02:15:58;17.23;;;9.97;;
15271;SDS011;7737;51.578;7.268;2024-01-16T02:18:24;15.47;;;9.67;;
15271;SDS011;7737;51.578;7.268;2024-01-16T02:20:52;13.97;;;10.07;;
15271;SDS011;7737;51.578;7.268;2024-01-16T02:23:25;11.83;;;9.17;;
15271;SDS011;7737;51.578;7.268;2024-01-16T02:25:53;14.90;;;9.93;;
15271;SDS011;7737;51.578;7.268;2024-01-16T02:28:20;18.27;;;12.73;;
15271;SDS011;7737;51.578;7.268;2024-01-16T02:30:46;19.53;;;12.57;;
15271;SDS011;7737;51.578;7.268;2024-01-16T02:33:13;18.47;;;11.63;;
15271;SDS011;7737;51.578;7.268;2024-01-16T02:35:39;16.37;;;11.10;;
15271;SDS011;7737;51.578;7.268;2024-01-16T02:38:06;15.33;;;10.70;;
15271;SDS011;7737;51.578;7.268;2024-01-16T02:40:34;15.20;;;10.17;;
15271;SDS011;7737;51.578;7.268;2024-01-16T02:42:59;22.93;;;11.83;;
15271;SDS011;7737;51.578;7.268;2024-01-16T02:45:26;20.27;;;13.33;;
15271;SDS011;7737;51.578;7.268;2024-01-16T02:47:52;21.33;;;13.47;;
15271;SDS011;7737;51.578;7.268;2024-01-16T02:50:19;19.67;;;12.70;;
15271;SDS011;7737;51.578;7.268;2024-01-16T02:52:46;16.97;;;12.37;;
15271;SDS011;7737;51.578;7.268;2024-01-16T02:55:12;19.20;;;12.97;;
15271;SDS011;7737;51.578;7.268;2024-01-16T02:57:41;18.17;;;12.43;;
15271;SDS011;7737;51.578;7.268;2024-01-16T03:00:07;17.27;;;12.93;;
15271;SDS011;7737;51.578;7.268;2024-01-16T03:02:34;17.57;;;12.70;;
15271;SDS011;7737;51.578;7.268;2024-01-16T03:05:02;18.73;;;11.53;;
15271;SDS011;7737;51.578;7.268;2024-01-16T03:07:30;19.93;;;12.90;;
15271;SDS011;7737;51.578;7.268;2024-01-16T03:09:56;18.00;;;13.20;;
15271;SDS011;7737;51.578;7.268;2024-01-16T03:12:23;21.90;;;12.40;;
15271;SDS011;7737;51.578;7.268;2024-01-16T03:14:51;16.90;;;11.50;;
15271;SDS011;7737;51.578;7.268;2024-01-16T03:17:18;17.17;;;11.03;;
15271;SDS011;7737;51.578;7.268;2024-01-16T03:19:45;15.07;;;10.57;;
15271;SDS011;7737;51.578;7.268;2024-01-16T03:22:11;13.97;;;11.07;;
15271;SDS011;7737;51.578;7.268;2024-01-16T03:24:38;15.90;;;11.40;;
15271;SDS011;7737;51.578;7.268;2024-01-16T03:27:05;18.27;;;11.97;;
15271;SDS011;7737;51.578;7.268;2024-01-16T03:29:32;18.03;;;12.27;;
15271;SDS011;7737;51.578;7.268;2024-01-16T03:32:00;21.73;;;12.90;;
15271;SDS011;7737;51.578;7.268;2024-01-16T03:34:27;19.23;;;13.70;;
15271;SDS011;7737;51.578;7.268;2024-01-16T03:36:54;18.57;;;13.17;;
15271;SDS011;7737;51.578;7.268;2024-01-16T03:39:20;21.70;;;14.33;;
15271;SDS011;7737;51.578;7.268;2024-01-16T03:41:47;23.03;;;15.40;;
15271;SDS011;7737;51.578;7.268;2024-01-16T03:44:14;19.93;;;14.60;;
15271;SDS011;7737;51.578;7.268;2024-01-16T03:46:40;22.30;;;14.67;;
15271;SDS011;7737;51.578;7.268;2024-01-16T03:49:08;22.27;;;15.27;;
15271;SDS011;7737;51.578;7.268;2024-01-16T03:51:35;20.70;;;14.97;;
15271;SDS011;7737;51.578;7.268;2024-01-16T03:54:01;21.70;;;15.13;;
15271;SDS011;7737;51.578;7.268;2024-01-16T03:56:28;20.03;;;15.33;;
15271;SDS011;7737;51.578;7.268;2024-01-16T03:58:54;22.00;;;14.97;;
15271;SDS011;7737;51.578;7.268;2024-01-16T04:01:29;22.43;;;14.40;;
15271;SDS011;7737;51.578;7.268;2024-01-16T04:03:56;18.70;;;14.40;;
15271;SDS011;7737;51.578;7.268;2024-01-16T04:06:24;21.40;;;14.10;;
15271;SDS011;7737;51.578;7.268;2024-01-16T04:08:51;20.47;;;13.53;;
15271;SDS011;7737;51.578;7.268;2024-01-16T04:11:17;21.90;;;14.43;;
15271;SDS011;7737;51.578;7.268;2024-01-16T04:13:44;20.10;;;13.40;;
15271;SDS011;7737;51.578;7.268;2024-01-16T04:16:11;18.40;;;13.73;;
15271;SDS011;7737;51.578;7.268;2024-01-16T04:18:38;18.63;;;14.63;;
15271;SDS011;7737;51.578;7.268;2024-01-16T04:21:06;19.30;;;14.37;;
15271;SDS011;7737;51.578;7.268;2024-01-16T04:23:34;19.97;;;14.03;;
15271;SDS011;7737;51.578;7.268;2024-01-16T04:26:01;18.83;;;13.43;;
15271;SDS011;7737;51.578;7.268;2024-01-16T04:28:26;21.30;;;13.77;;
15271;SDS011;7737;51.578;7.268;2024-01-16T04:30:53;19.20;;;13.33;;
15271;SDS011;7737;51.578;7.268;2024-01-16T04:33:19;19.07;;;13.90;;
15271;SDS011;7737;51.578;7.268;2024-01-16T04:35:46;21.63;;;14.27;;
15271;SDS011;7737;51.578;7.268;2024-01-16T04:38:12;20.47;;;14.90;;
15271;SDS011;7737;51.578;7.268;2024-01-16T04:40:40;20.93;;;13.87;;
15271;SDS011;7737;51.578;7.268;2024-01-16T04:43:07;18.63;;;14.37;;
15271;SDS011;7737;51.578;7.268;2024-01-16T04:45:33;20.60;;;14.90;;
15271;SDS011;7737;51.578;7.268;2024-01-16T04:48:00;20.00;;;14.47;;
15271;SDS011;7737;51.578;7.268;2024-01-16T04:50:26;19.33;;;14.77;;
15271;SDS011;7737;51.578;7.268;2024-01-16T04:52:56;20.93;;;13.70;;
15271;SDS011;7737;51.578;7.268;2024-01-16T04:55:24;21.70;;;15.37;;
15271;SDS011;7737;51.578;7.268;2024-01-16T04:57:52;21.37;;;15.10;;
15271;SDS011;7737;51.578;7.268;2024-01-16T05:00:19;19.80;;;14.63;;
15271;SDS011;7737;51.578;7.268;2024-01-16T05:02:45;20.13;;;14.77;;
15271;SDS011;7737;51.578;7.268;2024-01-16T05:05:12;17.87;;;14.50;;
15271;SDS011;7737;51.578;7.268;2024-01-16T05:07:39;22.17;;;14.40;;
15271;SDS011;7737;51.578;7.268;2024-01-16T05:10:09;20.43;;;14.40;;
15271;SDS011;7737;51.578;7.268;2024-01-16T05:12:36;18.07;;;14.13;;
15271;SDS011;7737;51.578;7.268;2024-01-16T05:15:04;20.67;;;14.37;;
15271;SDS011;7737;51.578;7.268;2024-01-16T05:17:31;15.70;;;13.27;;
15271;SDS011;7737;51.578;7.268;2024-01-16T05:19:58;19.50;;;13.77;;
15271;SDS011;7737;51.578;7.268;2024-01-16T05:22:25;19.50;;;13.87;;
15271;SDS011;7737;51.578;7.268;2024-01-16T05:24:51;18.33;;;13.00;;
15271;SDS011;7737;51.578;7.268;2024-01-16T05:27:18;16.00;;;11.67;;
15271;SDS011;7737;51.578;7.268;2024-01-16T05:29:45;15.23;;;10.63;;
15271;SDS011;7737;51.578;7.268;2024-01-16T05:32:14;17.53;;;10.83;;
15271;SDS011;7737;51.578;7.268;2024-01-16T05:34:41;12.20;;;9.77;;
15271;SDS011;7737;51.578;7.268;2024-01-16T05:37:07;14.40;;;10.27;;
15271;SDS011;7737;51.578;7.268;2024-01-16T05:39:33;14.37;;;9.40;;
15271;SDS011;7737;51.578;7.268;2024-01-16T05:42:01;12.70;;;9.30;;
15271;SDS011;7737;51.578;7.268;2024-01-16T05:44:28;13.00;;;9.57;;
15271;SDS011;7737;51.578;7.268;2024-01-16T05:46:55;11.00;;;8.03;;
15271;SDS011;7737;51.578;7.268;2024-01-16T05:49:23;16.77;;;9.03;;
15271;SDS011;7737;51.578;7.268;2024-01-16T05:51:49;12.63;;;9.00;;
15271;SDS011;7737;51.578;7.268;2024-01-16T05:54:15;12.63;;;9.47;;
15271;SDS011;7737;51.578;7.268;2024-01-16T05:56:42;15.67;;;10.17;;
15271;SDS011;7737;51.578;7.268;2024-01-16T05:59:09;12.97;;;10.30;;
15271;SDS011;7737;51.578;7.268;2024-01-16T06:01:35;14.80;;;12.27;;
15271;SDS011;7737;51.578;7.268;2024-01-16T06:04:03;17.80;;;12.27;;
15271;SDS011;7737;51.578;7.268;2024-01-16T06:06:31;16.73;;;13.17;;
15271;SDS011;7737;51.578;7.268;2024-01-16T06:08:58;15.47;;;11.97;;
15271;SDS011;7737;51.578;7.268;2024-01-16T06:11:30;14.87;;;11.37;;
15271;SDS011;7737;51.578;7.268;2024-01-16T06:13:56;15.33;;;11.77;;
15271;SDS011;7737;51.578;7.268;2024-01-16T06:16:23;16.93;;;10.87;;
15271;SDS011;7737;51.578;7.268;2024-01-16T06:18:50;17.57;;;10.97;;
15271;SDS011;7737;51.578;7.268;2024-01-16T06:21:16;14.40;;;11.17;;
15271;SDS011;7737;51.578;7.268;2024-01-16T06:23:45;14.67;;;11.13;;
15271;SDS011;7737;51.578;7.268;2024-01-16T06:26:11;16.20;;;11.73;;
15271;SDS011;7737;51.578;7.268;2024-01-16T06:28:38;15.47;;;11.77;;
15271;SDS011;7737;51.578;7.268;2024-01-16T06:31:07;15.80;;;12.10;;
15271;SDS011;7737;51.578;7.268;2024-01-16T06:33:33;16.53;;;12.77;;
15271;SDS011;7737;51.578;7.268;2024-01-16T06:36:00;18.67;;;13.10;;
15271;SDS011;7737;51.578;7.268;2024-01-16T06:38:29;15.73;;;12.10;;
15271;SDS011;7737;51.578;7.268;2024-01-16T06:40:57;17.23;;;12.63;;
15271;SDS011;7737;51.578;7.268;2024-01-16T06:43:23;15.50;;;11.47;;
15271;SDS011;7737;51.578;7.268;2024-01-16T06:45:50;16.73;;;11.70;;
15271;SDS011;7737;51.578;7.268;2024-01-16T06:48:16;15.93;;;11.20;;
15271;SDS011;7737;51.578;7.268;2024-01-16T06:50:42;13.57;;;10.90;;
15271;SDS011;7737;51.578;7.268;2024-01-16T06:53:09;17.07;;;11.03;;
15271;SDS011;7737;51.578;7.268;2024-01-16T06:55:35;16.07;;;10.73;;
15271;SDS011;7737;51.578;7.268;2024-01-16T06:58:03;16.07;;;10.97;;
15271;SDS011;7737;51.578;7.268;2024-01-16T07:00:30;16.37;;;11.93;;
15271;SDS011;7737;51.578;7.268;2024-01-16T07:02:56;15.53;;;11.43;;
15271;SDS011;7737;51.578;7.268;2024-01-16T07:05:23;15.07;;;12.47;;
15271;SDS011;7737;51.578;7.268;2024-01-16T07:07:49;16.93;;;12.63;;
15271;SDS011;7737;51.578;7.268;2024-01-16T07:10:16;17.00;;;13.67;;
15271;SDS011;7737;51.578;7.268;2024-01-16T07:12:44;20.57;;;14.10;;
15271;SDS011;7737;51.578;7.268;2024-01-16T07:15:11;24.07;;;15.90;;
15271;SDS011;7737;51.578;7.268;2024-01-16T07:17:38;22.93;;;17.80;;
15271;SDS011;7737;51.578;7.268;2024-01-16T07:20:05;23.83;;;17.77;;
15271;SDS011;7737;51.578;7.268;2024-01-16T07:22:32;24.50;;;18.07;;
15271;SDS011;7737;51.578;7.268;2024-01-16T07:24:59;24.50;;;18.33;;
15271;SDS011;7737;51.578;7.268;2024-01-16T07:27:26;22.27;;;16.27;;
15271;SDS011;7737;51.578;7.268;2024-01-16T07:29:52;23.43;;;16.27;;
15271;SDS011;7737;51.578;7.268;2024-01-16T07:32:20;23.63;;;17.27;;
15271;SDS011;7737;51.578;7.268;2024-01-16T07:34:46;25.47;;;16.23;;
15271;SDS011;7737;51.578;7.268;2024-01-16T07:37:13;25.70;;;16.53;;
15271;SDS011;7737;51.578;7.268;2024-01-16T07:39:40;23.70;;;16.77;;
15271;SDS011;7737;51.578;7.268;2024-01-16T07:42:07;22.93;;;16.50;;
15271;SDS011;7737;51.578;7.268;2024-01-16T07:44:34;24.87;;;16.67;;
15271;SDS011;7737;51.578;7.268;2024-01-16T07:47:00;23.03;;;16.77;;
15271;SDS011;7737;51.578;7.268;2024-01-16T07:49:28;24.03;;;16.00;;
15271;SDS011;7737;51.578;7.268;2024-01-16T07:51:55;22.63;;;15.37;;
15271;SDS011;7737;51.578;7.268;2024-01-16T07:54:21;23.97;;;15.70;;
15271;SDS011;7737;51.578;7.268;2024-01-16T07:56:51;20.90;;;15.53;;
15271;SDS011;7737;51.578;7.268;2024-01-16T07:59:18;21.50;;;15.10;;
15271;SDS011;7737;51.578;7.268;2024-01-16T08:01:44;20.90;;;16.17;;
15271;SDS011;7737;51.578;7.268;2024-01-16T08:04:11;20.33;;;13.93;;
15271;SDS011;7737;51.578;7.268;2024-01-16T08:06:38;18.37;;;13.67;;
15271;SDS011;7737;51.578;7.268;2024-01-16T08:09:05;19.87;;;12.90;;
15271;SDS011;7737;51.578;7.268;2024-01-16T08:11:32;19.60;;;12.50;;
15271;SDS011;7737;51.578;7.268;2024-01-16T08:14:01;16.63;;;11.90;;
15271;SDS011;7737;51.578;7.268;2024-01-16T08:16:28;15.87;;;11.80;;
15271;SDS011;7737;51.578;7.268;2024-01-16T08:18:54;17.93;;;11.20;;
15271;SDS011;7737;51.578;7.268;2024-01-16T08:21:21;17.17;;;10.60;;
15271;SDS011;7737;51.578;7.268;2024-01-16T08:23:49;17.80;;;10.20;;
15271;SDS011;7737;51.578;7.268;2024-01-16T08:26:15;17.43;;;10.30;;
15271;SDS011;7737;51.578;7.268;2024-01-16T08:28:41;12.17;;;8.03;;
15271;SDS011;7737;51.578;7.268;2024-01-16T08:31:08;14.87;;;8.00;;
15271;SDS011;7737;51.578;7.268;2024-01-16T08:33:35;14.70;;;7.67;;
15271;SDS011;7737;51.578;7.268;2024-01-16T08:36:02;13.13;;;6.70;;
15271;SDS011;7737;51.578;7.268;2024-01-16T08:38:29;13.83;;;6.63;;
15271;SDS011;7737;51.578;7.268;2024-01-16T08:40:57;10.40;;;5.93;;
15271;SDS011;7737;51.578;7.268;2024-01-16T08:43:23;15.03;;;6.43;;
15271;SDS011;7737;51.578;7.268;2024-01-16T08:45:50;11.87;;;5.97;;
15271;SDS011;7737;51.578;7.268;2024-01-16T08:48:16;13.90;;;5.67;;
15271;SDS011;7737;51.578;7.268;2024-01-16T08:50:43;11.93;;;5.63;;
15271;SDS011;7737;51.578;7.268;2024-01-16T08:53:10;11.10;;;5.10;;
15271;SDS011;7737;51.578;7.268;2024-01-16T08:55:37;10.67;;;4.87;;
15271;SDS011;7737;51.578;7.268;2024-01-16T08:58:05;11.40;;;5.40;;
15271;SDS011;7737;51.578;7.268;2024-01-16T09:00:31;9.87;;;4.73;;
15271;SDS011;7737;51.578;7.268;2024-01-16T09:02:58;11.97;;;5.00;;
15271;SDS011;7737;51.578;7.268;2024-01-16T09:05:25;12.83;;;5.13;;
15271;SDS011;7737;51.578;7.268;2024-01-16T09:07:51;11.93;;;4.63;;
15271;SDS011;7737;51.578;7.268;2024-01-16T09:10:18;9.17;;;4.20;;
15271;SDS011;7737;51.578;7.268;2024-01-16T09:12:45;10.63;;;4.30;;
15271;SDS011;7737;51.578;7.268;2024-01-16T09:15:13;9.53;;;4.20;;
15271;SDS011;7737;51.578;7.268;2024-01-16T09:17:40;7.73;;;3.83;;
15271;SDS011;7737;51.578;7.268;2024-01-16T09:20:07;13.70;;;4.30;;
15271;SDS011;7737;51.578;7.268;2024-01-16T09:22:34;10.07;;;4.00;;
15271;SDS011;7737;51.578;7.268;2024-01-16T09:25:01;9.33;;;3.77;;
15271;SDS011;7737;51.578;7.268;2024-01-16T09:27:27;9.90;;;3.73;;
15271;SDS011;7737;51.578;7.268;2024-01-16T09:29:54;10.17;;;3.80;;
15271;SDS011;7737;51.578;7.268;2024-01-16T09:32:22;9.67;;;4.57;;
15271;SDS011;7737;51.578;7.268;2024-01-16T09:34:49;9.20;;;4.10;;
15271;SDS011;7737;51.578;7.268;2024-01-16T09:37:15;13.10;;;4.07;;
15271;SDS011;7737;51.578;7.268;2024-01-16T09:39:42;8.87;;;3.77;;
15271;SDS011;7737;51.578;7.268;2024-01-16T09:42:09;10.10;;;3.90;;
15271;SDS011;7737;51.578;7.268;2024-01-16T09:44:36;9.50;;;3.30;;
15271;SDS011;7737;51.578;7.268;2024-01-16T09:47:03;8.93;;;3.63;;
15271;SDS011;7737;51.578;7.268;2024-01-16T09:49:33;7.30;;;3.20;;
15271;SDS011;7737;51.578;7.268;2024-01-16T09:52:00;9.63;;;3.67;;
15271;SDS011;7737;51.578;7.268;2024-01-16T09:54:27;8.23;;;3.33;;
15271;SDS011;7737;51.578;7.268;2024-01-16T09:56:54;11.57;;;3.60;;
15271;SDS011;7737;51.578;7.268;2024-01-16T09:59:24;9.17;;;3.10;;
15271;SDS011;7737;51.578;7.268;2024-01-16T10:01:53;10.30;;;3.70;;
15271;SDS011;7737;51.578;7.268;2024-01-16T10:04:22;9.60;;;3.20;;
15271;SDS011;7737;51.578;7.268;2024-01-16T10:06:49;9.20;;;3.47;;
15271;SDS011;7737;51.578;7.268;2024-01-16T10:09:18;10.07;;;3.40;;
15271;SDS011;7737;51.578;7.268;2024-01-16T10:11:45;7.93;;;3.50;;
15271;SDS011;7737;51.578;7.268;2024-01-16T10:14:12;8.47;;;3.57;;
15271;SDS011;7737;51.578;7.268;2024-01-16T10:16:55;8.77;;;3.50;;
15271;SDS011;7737;51.578;7.268;2024-01-16T10:19:22;9.73;;;3.30;;
15271;SDS011;7737;51.578;7.268;2024-01-16T10:21:50;8.73;;;3.70;;
15271;SDS011;7737;51.578;7.268;2024-01-16T10:24:17;9.40;;;3.10;;
15271;SDS011;7737;51.578;7.268;2024-01-16T10:26:44;9.37;;;3.53;;
15271;SDS011;7737;51.578;7.268;2024-01-16T10:29:10;9.63;;;3.50;;
15271;SDS011;7737;51.578;7.268;2024-01-16T10:31:37;9.97;;;3.50;;
15271;SDS011;7737;51.578;7.268;2024-01-16T10:34:07;7.40;;;3.37;;
15271;SDS011;7737;51.578;7.268;2024-01-16T10:36:45;7.27;;;3.37;;
15271;SDS011;7737;51.578;7.268;2024-01-16T10:39:13;7.90;;;3.27;;
15271;SDS011;7737;51.578;7.268;2024-01-16T10:41:40;10.67;;;3.30;;
15271;SDS011;7737;51.578;7.268;2024-01-16T10:44:07;5.90;;;3.10;;
15271;SDS011;7737;51.578;7.268;2024-01-16T10:46:35;6.43;;;3.27;;
15271;SDS011;7737;51.578;7.268;2024-01-16T10:49:02;8.37;;;3.47;;
15271;SDS011;7737;51.578;7.268;2024-01-16T10:51:29;9.93;;;3.60;;
15271;SDS011;7737;51.578;7.268;2024-01-16T10:53:57;13.10;;;3.17;;
15271;SDS011;7737;51.578;7.268;2024-01-16T10:56:26;10.00;;;4.10;;
15271;SDS011;7737;51.578;7.268;2024-01-16T10:58:57;9.70;;;3.33;;
15271;SDS011;7737;51.578;7.268;2024-01-16T11:01:31;7.70;;;3.63;;
15271;SDS011;7737;51.578;7.268;2024-01-16T11:03:58;7.87;;;3.20;;
15271;SDS011;7737;51.578;7.268;2024-01-16T11:06:27;7.77;;;3.60;;
15271;SDS011;7737;51.578;7.268;2024-01-16T11:08:54;10.97;;;3.43;;
15271;SDS011;7737;51.578;7.268;2024-01-16T11:11:23;8.37;;;3.30;;
15271;SDS011;7737;51.578;7.268;2024-01-16T11:13:51;8.33;;;3.10;;
15271;SDS011;7737;51.578;7.268;2024-01-16T11:16:20;7.70;;;3.60;;
15271;SDS011;7737;51.578;7.268;2024-01-16T11:18:47;9.03;;;3.40;;
15271;SDS011;7737;51.578;7.268;2024-01-16T11:21:14;8.50;;;3.10;;
15271;SDS011;7737;51.578;7.268;2024-01-16T11:23:42;8.13;;;3.40;;
15271;SDS011;7737;51.578;7.268;2024-01-16T11:26:25;8.07;;;3.43;;
15271;SDS011;7737;51.578;7.268;2024-01-16T11:28:54;9.47;;;2.93;;
15271;SDS011;7737;51.578;7.268;2024-01-16T11:31:29;9.73;;;3.10;;
15271;SDS011;7737;51.578;7.268;2024-01-16T11:33:56;7.43;;;3.77;;
15271;SDS011;7737;51.578;7.268;2024-01-16T11:39:19;7.20;;;3.23;;
15271;SDS011;7737;51.578;7.268;2024-01-16T11:41:47;8.70;;;2.80;;
15271;SDS011;7737;51.578;7.268;2024-01-16T11:47:09;11.33;;;4.00;;
15271;SDS011;7737;51.578;7.268;2024-01-16T11:49:41;11.93;;;3.13;;
15271;SDS011;7737;51.578;7.268;2024-01-16T11:52:09;7.13;;;3.20;;
15271;SDS011;7737;51.578;7.268;2024-01-16T11:54:36;10.20;;;3.20;;
15271;SDS011;7737;51.578;7.268;2024-01-16T11:57:09;6.87;;;3.43;;
15271;SDS011;7737;51.578;7.268;2024-01-16T12:00:02;7.83;;;3.40;;
15271;SDS011;7737;51.578;7.268;2024-01-16T12:02:48;8.03;;;3.40;;
15271;SDS011;7737;51.578;7.268;2024-01-16T12:05:17;6.93;;;3.83;;
15271;SDS011;7737;51.578;7.268;2024-01-16T12:07:46;8.17;;;3.10;;
15271;SDS011;7737;51.578;7.268;2024-01-16T12:10:15;8.60;;;3.00;;
15271;SDS011;7737;51.578;7.268;2024-01-16T12:12:41;8.43;;;3.07;;
15271;SDS011;7737;51.578;7.268;2024-01-16T12:15:14;8.50;;;3.13;;
15271;SDS011;7737;51.578;7.268;2024-01-16T12:20:29;8.63;;;3.33;;
15271;SDS011;7737;51.578;7.268;2024-01-16T12:22:58;8.97;;;3.20;;
15271;SDS011;7737;51.578;7.268;2024-01-16T12:25:25;7.70;;;3.40;;
15271;SDS011;7737;51.578;7.268;2024-01-16T12:27:56;5.20;;;2.90;;
15271;SDS011;7737;51.578;7.268;2024-01-16T12:30:25;10.40;;;3.20;;
15271;SDS011;7737;51.578;7.268;2024-01-16T12:33:02;6.83;;;3.20;;
15271;SDS011;7737;51.578;7.268;2024-01-16T12:35:29;7.53;;;3.27;;
15271;SDS011;7737;51.578;7.268;2024-01-16T12:37:59;9.07;;;3.40;;
15271;SDS011;7737;51.578;7.268;2024-01-16T12:40:26;9.27;;;3.20;;
15271;SDS011;7737;51.578;7.268;2024-01-16T12:42:53;7.57;;;3.70;;
15271;SDS011;7737;51.578;7.268;2024-01-16T12:45:20;8.37;;;3.63;;
15271;SDS011;7737;51.578;7.268;2024-01-16T12:47:52;8.57;;;3.80;;
15271;SDS011;7737;51.578;7.268;2024-01-16T12:50:19;6.10;;;3.37;;
15271;SDS011;7737;51.578;7.268;2024-01-16T12:52:47;9.83;;;3.60;;
15271;SDS011;7737;51.578;7.268;2024-01-16T12:55:14;8.13;;;3.33;;
15271;SDS011;7737;51.578;7.268;2024-01-16T12:57:41;10.43;;;3.50;;
15271;SDS011;7737;51.578;7.268;2024-01-16T13:02:52;7.07;;;3.30;;
15271;SDS011;7737;51.578;7.268;2024-01-16T13:05:20;6.73;;;3.20;;
15271;SDS011;7737;51.578;7.268;2024-01-16T13:07:58;8.47;;;3.27;;
15271;SDS011;7737;51.578;7.268;2024-01-16T13:10:26;6.37;;;3.37;;
15271;SDS011;7737;51.578;7.268;2024-01-16T13:12:52;8.30;;;3.10;;
15271;SDS011;7737;51.578;7.268;2024-01-16T13:15:37;6.07;;;2.80;;
15271;SDS011;7737;51.578;7.268;2024-01-16T13:18:05;7.30;;;3.60;;
15271;SDS011;7737;51.578;7.268;2024-01-16T13:20:32;9.60;;;3.20;;
15271;SDS011;7737;51.578;7.268;2024-01-16T13:22:59;7.87;;;3.37;;
15271;SDS011;7737;51.578;7.268;2024-01-16T13:25:25;9.27;;;3.70;;
15271;SDS011;7737;51.578;7.268;2024-01-16T13:27:52;9.37;;;3.57;;
15271;SDS011;7737;51.578;7.268;2024-01-16T13:30:19;7.77;;;3.40;;
15271;SDS011;7737;51.578;7.268;2024-01-16T13:32:46;7.37;;;3.20;;
15271;SDS011;7737;51.578;7.268;2024-01-16T13:35:14;6.50;;;3.10;;
15271;SDS011;7737;51.578;7.268;2024-01-16T13:37:40;7.80;;;3.43;;
15271;SDS011;7737;51.578;7.268;2024-01-16T13:40:07;9.30;;;3.10;;
15271;SDS011;7737;51.578;7.268;2024-01-16T13:42:36;7.83;;;3.60;;
15271;SDS011;7737;51.578;7.268;2024-01-16T13:45:07;8.63;;;3.47;;
15271;SDS011;7737;51.578;7.268;2024-01-16T13:47:34;9.67;;;3.10;;
15271;SDS011;7737;51.578;7.268;2024-01-16T13:50:04;5.87;;;3.07;;
15271;SDS011;7737;51.578;7.268;2024-01-16T13:52:33;7.10;;;2.90;;
15271;SDS011;7737;51.578;7.268;2024-01-16T13:55:00;11.57;;;3.60;;
15271;SDS011;7737;51.578;7.268;2024-01-16T13:57:29;6.40;;;3.50;;
15271;SDS011;7737;51.578;7.268;2024-01-16T13:59:55;7.67;;;3.93;;
15271;SDS011;7737;51.578;7.268;2024-01-16T14:02:22;7.20;;;4.03;;
15271;SDS011;7737;51.578;7.268;2024-01-16T14:04:48;13.13;;;6.53;;
15271;SDS011;7737;51.578;7.268;2024-01-16T14:07:15;8.43;;;4.20;;
15271;SDS011;7737;51.578;7.268;2024-01-16T14:09:43;10.97;;;5.00;;
15271;SDS011;7737;51.578;7.268;2024-01-16T14:12:10;11.27;;;4.43;;
15271;SDS011;7737;51.578;7.268;2024-01-16T14:14:38;8.43;;;4.27;;
15271;SDS011;7737;51.578;7.268;2024-01-16T14:17:05;9.23;;;4.30;;
15271;SDS011;7737;51.578;7.268;2024-01-16T14:19:34;10.13;;;4.43;;
15271;SDS011;7737;51.578;7.268;2024-01-16T14:22:00;10.40;;;4.30;;
15271;SDS011;7737;51.578;7.268;2024-01-16T14:24:27;8.67;;;4.50;;
15271;SDS011;7737;51.578;7.268;2024-01-16T14:26:55;7.40;;;4.20;;
15271;SDS011;7737;51.578;7.268;2024-01-16T14:29:21;8.73;;;4.43;;
15271;SDS011;7737;51.578;7.268;2024-01-16T14:31:49;7.93;;;4.20;;
15271;SDS011;7737;51.578;7.268;2024-01-16T14:34:16;9.43;;;4.63;;
15271;SDS011;7737;51.578;7.268;2024-01-16T14:36:44;8.13;;;4.00;;
15271;SDS011;7737;51.578;7.268;2024-01-16T14:39:10;7.13;;;4.20;;
15271;SDS011;7737;51.578;7.268;2024-01-16T14:41:38;8.30;;;4.63;;
15271;SDS011;7737;51.578;7.268;2024-01-16T14:44:07;10.20;;;4.20;;
15271;SDS011;7737;51.578;7.268;2024-01-16T14:46:34;8.40;;;4.57;;
15271;SDS011;7737;51.578;7.268;2024-01-16T14:49:01;9.63;;;5.30;;
15271;SDS011;7737;51.578;7.268;2024-01-16T14:51:28;6.63;;;4.17;;
15271;SDS011;7737;51.578;7.268;2024-01-16T14:53:54;9.00;;;4.10;;
15271;SDS011;7737;51.578;7.268;2024-01-16T14:56:21;8.90;;;4.60;;
15271;SDS011;7737;51.578;7.268;2024-01-16T14:58:47;8.73;;;4.50;;